createdAt,value
2023-04-11T00:01:33.076Z,1.00
2023-04-11T00:04:04.205Z,1.57
2023-04-11T00:06:35.100Z,1.50
2023-04-11T00:09:05.822Z,1.67
2023-04-11T00:11:36.447Z,1.30
2023-04-11T00:14:09.103Z,1.40
2023-04-11T00:16:59.929Z,1.30
2023-04-11T00:19:30.818Z,1.10
2023-04-11T00:22:01.608Z,1.20
2023-04-11T00:24:32.333Z,1.50
2023-04-11T00:27:02.955Z,1.47
2023-04-11T00:29:35.852Z,1.40
2023-04-11T00:32:07.349Z,1.60
2023-04-11T00:34:38.032Z,1.37
2023-04-11T00:37:08.843Z,1.03
2023-04-11T00:39:39.669Z,1.40
2023-04-11T00:42:11.290Z,1.73
2023-04-11T00:44:41.889Z,1.40
2023-04-11T00:47:12.934Z,1.20
2023-04-11T00:49:43.733Z,1.47
2023-04-11T00:52:14.611Z,1.37
2023-04-11T00:54:45.237Z,1.30
2023-04-11T00:57:16.257Z,1.60
2023-04-11T00:59:49.088Z,1.30
2023-04-11T01:02:19.971Z,1.50
2023-04-11T01:04:51.425Z,1.67
2023-04-11T01:07:24.571Z,1.50
2023-04-11T01:09:56.414Z,1.50
2023-04-11T01:12:27.536Z,1.60
2023-04-11T01:14:58.924Z,1.40
2023-04-11T01:17:29.633Z,1.30
2023-04-11T01:20:00.680Z,1.40
2023-04-11T01:22:32.462Z,1.63
2023-04-11T01:25:03.062Z,1.53
2023-04-11T01:27:34.260Z,1.50
2023-04-11T01:30:05.404Z,1.30
2023-04-11T01:32:36.111Z,1.60
2023-04-11T01:35:08.565Z,1.50
2023-04-11T01:37:39.413Z,1.50
2023-04-11T01:40:13.648Z,1.60
2023-04-11T01:42:45.168Z,1.30
2023-04-11T01:45:16.401Z,1.70
2023-04-11T01:47:49.601Z,1.50
2023-04-11T01:50:19.743Z,1.37
2023-04-11T01:52:51.176Z,1.77
2023-04-11T01:55:40.488Z,2.27
2023-04-11T01:58:11.645Z,1.97
2023-04-11T02:00:42.721Z,2.13
2023-04-11T02:03:14.130Z,1.80
2023-04-11T02:05:46.208Z,1.77
2023-04-11T02:08:17.201Z,1.97
2023-04-11T02:10:48.146Z,1.70
2023-04-11T02:13:19.473Z,1.93
2023-04-11T02:15:50.595Z,2.00
2023-04-11T02:18:21.703Z,2.27
2023-04-11T02:20:53.074Z,2.23
2023-04-11T02:23:24.392Z,2.00
2023-04-11T02:25:55.181Z,1.83
2023-04-11T02:28:25.875Z,2.30
2023-04-11T02:30:56.954Z,2.37
2023-04-11T02:33:27.782Z,2.47
2023-04-11T02:35:58.449Z,2.80
2023-04-11T02:38:29.193Z,2.80
2023-04-11T02:41:00.559Z,2.50
2023-04-11T02:43:31.185Z,2.87
2023-04-11T02:46:09.755Z,2.97
2023-04-11T02:48:34.068Z,2.07
2023-04-11T02:51:04.786Z,2.47
2023-04-11T02:53:35.972Z,2.40
2023-04-11T02:56:07.995Z,2.80
2023-04-11T02:58:42.072Z,2.77
2023-04-11T03:01:15.062Z,2.87
2023-04-11T03:03:46.318Z,2.90
2023-04-11T03:06:17.338Z,3.03
2023-04-11T03:08:48.397Z,2.70
2023-04-11T03:11:19.563Z,3.03
2023-04-11T03:13:50.606Z,3.00
2023-04-11T03:16:21.448Z,3.23
2023-04-11T03:18:52.648Z,4.20
2023-04-11T03:21:23.771Z,3.30
2023-04-11T03:23:55.029Z,3.60
2023-04-11T03:26:27.256Z,3.10
2023-04-11T03:28:58.841Z,3.57
2023-04-11T03:31:30.791Z,3.40
2023-04-11T03:34:20.278Z,3.83
2023-04-11T03:36:51.352Z,3.40
2023-04-11T03:39:22.974Z,3.53
2023-04-11T03:41:54.137Z,3.10
2023-04-11T03:44:25.199Z,3.13
2023-04-11T03:46:56.355Z,3.17
2023-04-11T03:49:27.472Z,3.23
2023-04-11T03:51:58.923Z,3.30
2023-04-11T03:54:29.953Z,3.17
2023-04-11T03:57:01.281Z,3.60
2023-04-11T03:59:32.898Z,3.93
2023-04-11T04:02:04.074Z,3.30
2023-04-11T04:04:35.201Z,3.40
2023-04-11T04:07:06.891Z,3.90
2023-04-11T04:09:38.403Z,3.43
2023-04-11T04:12:10.258Z,3.63
2023-04-11T04:14:41.433Z,3.30
2023-04-11T04:17:13.222Z,3.73
2023-04-11T04:19:44.321Z,3.40
2023-04-11T04:22:17.115Z,3.40
2023-04-11T04:24:48.185Z,3.33
2023-04-11T04:27:19.161Z,3.93
2023-04-11T04:29:52.288Z,4.13
2023-04-11T04:32:25.191Z,3.37
2023-04-11T04:34:56.681Z,4.10
2023-04-11T04:37:28.276Z,4.07
2023-04-11T04:40:02.463Z,3.70
2023-04-11T04:42:34.499Z,4.00
2023-04-11T04:45:06.792Z,3.90
2023-04-11T04:47:39.305Z,4.10
2023-04-11T04:50:12.492Z,3.87
2023-04-11T04:52:46.617Z,4.10
2023-04-11T04:55:17.680Z,3.80
2023-04-11T04:57:48.406Z,3.47
2023-04-11T05:00:21.805Z,4.00
2023-04-11T05:02:54.197Z,4.10
2023-04-11T05:05:25.102Z,3.60
2023-04-11T05:07:55.874Z,3.67
2023-04-11T05:10:26.947Z,3.50
2023-04-11T05:12:58.560Z,4.63
2023-04-11T05:15:29.177Z,3.77
2023-04-11T05:18:00.118Z,3.43
2023-04-11T05:20:31.291Z,3.60
2023-04-11T05:23:02.046Z,3.80
2023-04-11T05:25:33.092Z,3.40
2023-04-11T05:28:03.789Z,3.60
2023-04-11T05:30:34.608Z,3.93
2023-04-11T05:33:05.803Z,3.80
2023-04-11T05:35:36.574Z,3.67
2023-04-11T05:38:07.296Z,3.90
2023-04-11T05:40:38.075Z,4.00
2023-04-11T05:43:10.729Z,4.13
2023-04-11T05:45:41.871Z,3.10
2023-04-11T05:48:13.818Z,3.27
2023-04-11T05:50:44.876Z,3.93
2023-04-11T05:53:15.700Z,4.13
2023-04-11T05:55:46.652Z,4.13
2023-04-11T05:58:17.681Z,4.27
2023-04-11T06:00:49.960Z,4.07
2023-04-11T06:03:21.958Z,4.43
2023-04-11T06:05:52.872Z,5.23
2023-04-11T06:08:23.504Z,4.97
2023-04-11T06:10:54.276Z,4.73
2023-04-11T06:13:25.408Z,5.10
2023-04-11T06:15:56.405Z,5.25
2023-04-11T06:18:27.200Z,4.80
2023-04-11T06:20:57.981Z,4.90
2023-04-11T06:23:28.669Z,4.90
2023-04-11T06:25:59.512Z,4.50
2023-04-11T06:28:30.160Z,4.77
2023-04-11T06:31:00.934Z,5.20
2023-04-11T06:33:31.739Z,4.83
2023-04-11T06:36:04.204Z,4.47
2023-04-11T06:38:37.101Z,4.77
2023-04-11T06:41:09.884Z,4.77
2023-04-11T06:43:41.127Z,4.80
2023-04-11T06:46:12.872Z,5.37
2023-04-11T06:51:22.395Z,5.10
2023-04-11T06:53:53.233Z,5.30
2023-04-11T06:56:23.995Z,4.43
2023-04-11T06:58:54.813Z,4.70
2023-04-11T07:01:29.855Z,4.53
2023-04-11T07:04:01.019Z,4.67
2023-04-11T07:06:32.577Z,4.73
2023-04-11T07:09:03.971Z,5.40
2023-04-11T07:11:35.178Z,4.50
2023-04-11T07:14:06.245Z,5.00
2023-04-11T07:16:37.086Z,4.57
2023-04-11T07:19:07.837Z,4.63
2023-04-11T07:21:38.522Z,5.50
2023-04-11T07:24:12.628Z,5.47
2023-04-11T07:26:43.261Z,5.07
2023-04-11T07:29:14.818Z,4.87
2023-04-11T07:31:46.149Z,5.33
2023-04-11T07:34:17.495Z,5.60
2023-04-11T07:36:50.150Z,4.83
2023-04-11T07:39:20.897Z,6.40
2023-04-11T07:41:51.604Z,6.00
2023-04-11T07:44:23.312Z,5.13
2023-04-11T07:46:54.743Z,4.73
2023-04-11T07:49:25.746Z,3.77
2023-04-11T07:51:57.009Z,3.90
2023-04-11T07:54:28.757Z,2.90
2023-04-11T07:56:59.616Z,3.10
2023-04-11T07:59:30.488Z,2.20
2023-04-11T08:02:02.783Z,2.70
2023-04-11T08:04:35.483Z,2.90
2023-04-11T08:07:07.151Z,2.60
2023-04-11T08:09:37.865Z,2.07
2023-04-11T08:12:08.947Z,2.10
2023-04-11T08:14:40.221Z,1.40
2023-04-11T08:17:24.972Z,1.30
2023-04-11T08:19:44.711Z,1.50
2023-04-11T08:22:15.453Z,1.37
2023-04-11T08:24:46.192Z,1.40
2023-04-11T08:27:16.974Z,1.40
2023-04-11T08:29:48.243Z,1.43
2023-04-11T08:32:19.350Z,1.33
2023-04-11T08:34:50.058Z,1.80
2023-04-11T08:37:21.004Z,1.40
2023-04-11T08:39:51.832Z,1.73
2023-04-11T08:42:26.608Z,1.97
2023-04-11T08:44:59.275Z,1.63
2023-04-11T08:47:30.062Z,1.77
2023-04-11T08:50:00.817Z,1.27
2023-04-11T08:52:34.747Z,1.40
2023-04-11T08:55:07.799Z,1.60
2023-04-11T08:57:39.151Z,1.30
2023-04-11T09:00:16.075Z,1.40
2023-04-11T09:02:59.384Z,1.43
2023-04-11T09:05:32.464Z,1.67
2023-04-11T09:08:06.710Z,1.90
2023-04-11T09:10:39.222Z,1.47
2023-04-11T09:13:24.799Z,1.57
2023-04-11T09:16:09.431Z,1.40
2023-04-11T09:18:42.562Z,1.13
2023-04-11T09:21:15.331Z,1.60
2023-04-11T09:23:47.211Z,1.67
2023-04-11T09:26:27.680Z,1.67
2023-04-11T09:28:59.847Z,1.67
2023-04-11T09:31:43.146Z,1.20
2023-04-11T09:34:14.866Z,1.40
2023-04-11T09:36:47.324Z,1.30
2023-04-11T09:39:21.739Z,1.30
2023-04-11T09:41:53.080Z,1.30
2023-04-11T09:44:30.188Z,1.33
2023-04-11T09:47:01.932Z,1.30
2023-04-11T09:49:35.332Z,1.40
2023-04-11T09:52:06.833Z,1.27
2023-04-11T09:54:39.463Z,1.77
2023-04-11T09:57:11.334Z,1.33
2023-04-11T09:59:43.688Z,1.57
2023-04-11T10:02:16.941Z,1.33
2023-04-11T10:04:47.859Z,2.00
2023-04-11T10:07:19.106Z,1.30
2023-04-11T10:09:50.490Z,1.40
2023-04-11T10:12:36.582Z,1.90
2023-04-11T10:15:12.091Z,1.30
2023-04-11T10:17:43.200Z,1.20
2023-04-11T10:23:24.325Z,1.47
2023-04-11T10:25:58.208Z,1.30
2023-04-11T10:28:40.062Z,1.10
2023-04-11T10:31:14.364Z,1.60
2023-04-11T10:37:04.964Z,1.10
2023-04-11T10:40:09.151Z,1.40
2023-04-11T10:42:43.550Z,1.20
2023-04-11T10:45:21.980Z,1.60
2023-04-11T10:48:11.311Z,1.13
2023-04-11T10:50:46.267Z,1.40
2023-04-11T10:56:39.428Z,1.43
2023-04-11T10:59:11.742Z,1.20
2023-04-11T11:04:17.772Z,1.30
2023-04-11T11:06:56.761Z,1.17
2023-04-11T11:09:24.348Z,1.57
2023-04-11T11:12:11.948Z,1.07
2023-04-11T11:14:44.240Z,1.30
2023-04-11T11:17:16.692Z,1.70
2023-04-11T11:19:48.026Z,1.23
2023-04-11T11:24:56.381Z,1.40
2023-04-11T11:27:27.496Z,1.50
2023-04-11T11:29:58.231Z,1.50
2023-04-11T11:32:29.785Z,2.33
2023-04-11T11:35:03.994Z,2.20
2023-04-11T11:37:34.635Z,1.87
2023-04-11T11:40:09.748Z,1.83
2023-04-11T11:45:22.170Z,1.70
2023-04-11T11:47:53.461Z,1.27
2023-04-11T11:50:32.733Z,3.45
2023-04-11T11:53:15.221Z,0.90
2023-04-11T11:55:46.531Z,1.57
2023-04-11T11:58:19.053Z,1.10
2023-04-11T12:00:52.976Z,1.40
2023-04-11T12:03:25.933Z,1.23
2023-04-11T12:05:58.489Z,1.33
2023-04-11T12:08:31.024Z,1.00
2023-04-11T12:11:02.752Z,1.80
2023-04-11T12:13:33.772Z,1.33
2023-04-11T12:16:04.809Z,1.63
2023-04-11T12:18:36.469Z,1.43
2023-04-11T12:21:08.243Z,0.87
2023-04-11T12:23:39.084Z,1.00
2023-04-11T12:26:10.428Z,1.30
2023-04-11T12:28:41.289Z,1.33
2023-04-11T12:31:14.972Z,1.10
2023-04-11T12:33:46.106Z,1.40
2023-04-11T12:36:16.980Z,1.10
2023-04-11T12:38:48.585Z,1.60
2023-04-11T12:41:32.327Z,1.53
2023-04-11T12:43:53.983Z,1.47
2023-04-11T12:46:24.819Z,1.10
2023-04-11T12:48:55.711Z,1.47
2023-04-11T12:51:27.801Z,1.27
2023-04-11T12:53:58.671Z,1.23
2023-04-11T12:56:29.588Z,1.40
2023-04-11T12:59:00.247Z,1.10
2023-04-11T13:01:31.071Z,1.53
2023-04-11T13:04:02.629Z,0.93
2023-04-11T13:06:34.273Z,1.47
2023-04-11T13:09:07.530Z,1.50
2023-04-11T13:11:38.777Z,1.23
2023-04-11T13:14:09.459Z,1.43
2023-04-11T13:16:40.210Z,1.20
2023-04-11T13:19:10.993Z,1.90
2023-04-11T13:21:41.736Z,1.20
2023-04-11T13:24:12.701Z,1.30
2023-04-11T13:26:45.220Z,1.37
2023-04-11T13:29:16.126Z,1.60
2023-04-11T13:31:47.032Z,0.87
2023-04-11T13:34:18.627Z,1.20
2023-04-11T13:36:49.477Z,1.40
2023-04-11T13:39:20.307Z,1.63
2023-04-11T13:41:51.090Z,1.33
2023-04-11T13:44:22.387Z,1.30
2023-04-11T13:46:53.120Z,1.03
2023-04-11T13:49:23.889Z,1.73
2023-04-11T13:51:54.574Z,1.23
2023-04-11T13:54:26.358Z,1.50
2023-04-11T13:56:59.254Z,1.33
2023-04-11T13:59:30.231Z,1.40
2023-04-11T14:02:02.857Z,1.10
2023-04-11T14:04:34.096Z,1.17
2023-04-11T14:07:05.141Z,1.50
2023-04-11T14:09:36.520Z,1.30
2023-04-11T14:12:08.294Z,1.13
2023-04-11T14:14:40.219Z,1.40
2023-04-11T14:17:14.187Z,1.50
2023-04-11T14:19:52.465Z,1.33
2023-04-11T14:22:25.687Z,1.23
2023-04-11T14:24:57.010Z,1.20
2023-04-11T14:27:30.078Z,1.33
2023-04-11T14:30:04.011Z,1.27
2023-04-11T14:32:39.448Z,1.40
2023-04-11T14:35:12.331Z,1.10
2023-04-11T14:37:45.458Z,0.93
2023-04-11T14:40:16.424Z,1.23
2023-04-11T14:42:47.107Z,1.53
2023-04-11T14:45:18.355Z,1.13
2023-04-11T14:47:49.342Z,1.40
2023-04-11T14:53:00.102Z,1.37
2023-04-11T14:55:31.073Z,1.07
2023-04-11T14:58:01.835Z,1.43
2023-04-11T15:00:33.061Z,1.10
2023-04-11T15:03:04.286Z,0.90
2023-04-11T15:05:35.185Z,1.13
2023-04-11T15:08:06.187Z,1.67
2023-04-11T15:10:37.561Z,1.03
2023-04-11T15:13:09.665Z,0.83
2023-04-11T15:15:40.350Z,0.87
2023-04-11T15:18:25.859Z,2.83
2023-04-11T15:20:58.938Z,1.40
2023-04-11T15:23:30.774Z,1.53
2023-04-11T15:26:04.120Z,1.40
2023-04-11T15:28:36.978Z,1.23
2023-04-11T15:31:11.251Z,1.20
2023-04-11T15:33:43.429Z,1.10
2023-04-11T15:36:14.964Z,1.10
2023-04-11T15:38:46.853Z,1.10
2023-04-11T15:41:18.292Z,1.20
2023-04-11T15:46:29.658Z,1.17
2023-04-11T15:49:00.362Z,1.27
2023-04-11T15:51:31.174Z,1.40
2023-04-11T15:54:01.976Z,1.20
2023-04-11T15:56:33.605Z,1.10
2023-04-11T15:59:04.328Z,1.10
2023-04-11T16:01:37.142Z,1.10
2023-04-11T16:04:08.061Z,0.90
2023-04-11T16:06:38.848Z,1.07
2023-04-11T16:09:09.772Z,1.10
2023-04-11T16:11:41.509Z,1.10
2023-04-11T16:14:12.302Z,1.17
2023-04-11T16:16:44.849Z,1.20
2023-04-11T16:19:15.545Z,1.17
2023-04-11T16:21:46.517Z,1.20
2023-04-11T16:24:18.681Z,1.47
2023-04-11T16:26:49.464Z,1.30
2023-04-11T16:29:20.101Z,1.03
2023-04-11T16:31:51.253Z,1.57
2023-04-11T16:34:22.127Z,1.07
2023-04-11T16:36:52.794Z,1.20
2023-04-11T16:39:23.728Z,1.20
2023-04-11T16:41:55.956Z,1.40
2023-04-11T16:44:26.833Z,1.00
2023-04-11T16:46:57.650Z,1.23
2023-04-11T16:49:28.307Z,1.63
2023-04-11T16:54:36.278Z,1.07
2023-04-11T16:57:07.036Z,1.00
2023-04-11T16:59:37.811Z,1.20
2023-04-11T17:02:08.735Z,1.27
2023-04-11T17:04:39.931Z,1.30
2023-04-11T17:07:11.557Z,1.33
2023-04-11T17:09:42.401Z,1.23
2023-04-11T17:12:13.330Z,1.50
2023-04-11T17:14:46.019Z,1.33
2023-04-11T17:17:16.751Z,1.10
2023-04-11T17:19:47.537Z,1.30
2023-04-11T17:22:18.423Z,1.27
2023-04-11T17:24:49.091Z,1.00
2023-04-11T17:27:19.828Z,1.50
2023-04-11T17:29:50.469Z,1.33
2023-04-11T17:32:21.582Z,1.47
2023-04-11T17:34:53.320Z,1.60
2023-04-11T17:37:24.030Z,2.80
2023-04-11T17:39:55.942Z,1.80
2023-04-11T17:42:26.736Z,2.20
2023-04-11T17:45:03.761Z,1.53
2023-04-11T17:47:29.846Z,2.10
2023-04-11T17:50:00.569Z,1.90
2023-04-11T17:52:31.297Z,1.90
2023-04-11T17:55:03.829Z,1.57
2023-04-11T17:57:35.018Z,1.70
2023-04-11T18:00:10.481Z,1.53
2023-04-11T18:02:42.949Z,1.40
2023-04-11T18:05:23.213Z,1.37
2023-04-11T18:07:49.671Z,1.30
2023-04-11T18:10:22.535Z,1.20
2023-04-11T18:12:55.411Z,1.40
2023-04-11T18:15:27.488Z,1.40
2023-04-11T18:17:59.211Z,1.43
2023-04-11T18:20:30.118Z,1.30
2023-04-11T18:23:01.224Z,1.13
2023-04-11T18:25:33.148Z,1.77
2023-04-11T18:28:04.380Z,1.47
2023-04-11T18:30:35.114Z,1.60
2023-04-11T18:33:08.461Z,1.47
2023-04-11T18:35:40.282Z,1.63
2023-04-11T18:38:11.444Z,1.93
2023-04-11T18:40:42.250Z,1.87
2023-04-11T18:43:13.051Z,1.50
2023-04-11T18:45:45.448Z,1.40
2023-04-11T18:48:21.318Z,1.37
2023-04-11T18:51:01.635Z,1.37
2023-04-11T18:53:34.903Z,1.33
2023-04-11T18:58:50.326Z,1.33
2023-04-11T19:01:20.134Z,1.27
2023-04-11T19:03:53.507Z,1.20
2023-04-11T19:06:25.716Z,1.70
2023-04-11T19:09:07.718Z,1.33
2023-04-11T19:11:38.670Z,1.60
2023-04-11T19:14:16.406Z,1.50
2023-04-11T19:16:47.680Z,1.27
2023-04-11T19:19:18.753Z,1.20
2023-04-11T19:21:49.770Z,0.87
2023-04-11T19:24:20.862Z,1.70
2023-04-11T19:26:52.918Z,1.57
2023-04-11T19:29:23.683Z,1.10
2023-04-11T19:31:54.980Z,1.93
2023-04-11T19:34:26.818Z,1.17
2023-04-11T19:36:57.602Z,1.67
2023-04-11T19:39:30.204Z,1.50
2023-04-11T19:42:02.401Z,1.50
2023-04-11T19:44:33.135Z,1.40
2023-04-11T19:47:03.891Z,1.50
2023-04-11T19:49:34.612Z,1.23
2023-04-11T19:54:42.637Z,1.53
2023-04-11T19:57:13.431Z,1.50
2023-04-11T19:59:44.114Z,1.40
2023-04-11T20:05:12.288Z,1.47
2023-04-11T20:07:45.661Z,1.40
2023-04-11T20:12:56.878Z,1.30
2023-04-11T20:15:28.299Z,1.30
2023-04-11T20:18:00.810Z,1.40
2023-04-11T20:20:33.732Z,1.30
2023-04-11T20:23:07.825Z,1.30
2023-04-11T20:25:43.448Z,1.23
2023-04-11T20:28:14.289Z,1.20
2023-04-11T20:30:46.088Z,1.50
2023-04-11T20:33:22.338Z,1.43
2023-04-11T20:35:55.269Z,1.30
2023-04-11T20:38:26.987Z,1.60
2023-04-11T20:40:57.893Z,1.43
2023-04-11T20:43:33.964Z,1.70
2023-04-11T20:46:21.809Z,1.73
2023-04-11T20:51:30.372Z,1.47
2023-04-11T20:54:00.992Z,1.50
2023-04-11T20:56:33.266Z,1.30
2023-04-11T21:01:41.880Z,1.40
2023-04-11T21:06:49.363Z,1.23
2023-04-11T21:09:19.966Z,1.60
2023-04-11T21:14:27.633Z,1.80
2023-04-11T21:16:58.225Z,1.70
2023-04-11T21:22:06.443Z,2.00
2023-04-11T21:27:14.675Z,1.43
2023-04-11T21:29:45.261Z,1.10
2023-04-11T21:32:16.018Z,1.23
2023-04-11T21:34:46.579Z,1.80
2023-04-11T21:37:17.280Z,1.60
2023-04-11T21:39:48.009Z,1.37
2023-04-11T21:42:18.651Z,1.80
2023-04-11T21:44:50.345Z,1.90
2023-04-11T21:47:21.338Z,2.20
2023-04-11T21:49:52.157Z,2.53
2023-04-11T21:52:22.784Z,2.77
2023-04-11T21:54:53.547Z,2.07
2023-04-11T21:57:24.313Z,2.90
2023-04-11T21:59:55.054Z,1.80
2023-04-11T22:02:25.904Z,1.67
2023-04-11T22:05:06.515Z,1.50
2023-04-11T22:07:33.713Z,1.53
2023-04-11T22:10:05.848Z,1.90
2023-04-11T22:12:37.175Z,1.70
2023-04-11T22:15:11.659Z,1.90
2023-04-11T22:17:43.719Z,1.93
2023-04-11T22:20:16.837Z,2.00
2023-04-11T22:22:48.245Z,2.00
2023-04-11T22:25:20.668Z,1.73
2023-04-11T22:27:52.912Z,1.80
2023-04-11T22:30:24.572Z,1.87
2023-04-11T22:32:55.939Z,2.10
2023-04-11T22:35:26.631Z,2.10
2023-04-11T22:37:59.482Z,2.37
2023-04-11T22:40:30.099Z,2.17
2023-04-11T22:43:01.880Z,2.00
2023-04-11T22:45:35.402Z,1.80
2023-04-11T22:48:07.079Z,1.90
2023-04-11T22:50:38.071Z,1.50
2023-04-11T22:53:09.611Z,1.60
2023-04-11T22:55:40.731Z,1.37
2023-04-11T22:58:11.467Z,1.70
2023-04-11T23:00:43.594Z,1.70
2023-04-11T23:03:14.368Z,2.00
2023-04-11T23:05:45.098Z,1.83
2023-04-11T23:08:15.830Z,1.70
2023-04-11T23:10:46.416Z,1.40
2023-04-11T23:13:17.006Z,2.10
2023-04-11T23:15:48.620Z,1.90
2023-04-11T23:18:19.489Z,2.00
2023-04-11T23:20:50.719Z,1.70
2023-04-11T23:23:21.340Z,1.60
2023-04-11T23:25:52.395Z,1.90
2023-04-11T23:28:24.494Z,2.27
2023-04-11T23:30:56.193Z,1.73
2023-04-11T23:33:26.954Z,1.57
2023-04-11T23:35:58.085Z,1.90
2023-04-11T23:38:29.134Z,1.43
2023-04-11T23:40:59.785Z,1.20
2023-04-11T23:43:30.397Z,1.50
2023-04-11T23:46:01.520Z,1.60
2023-04-11T23:48:32.442Z,1.90
2023-04-11T23:51:03.691Z,1.60
2023-04-11T23:53:34.365Z,1.77
2023-04-11T23:56:05.118Z,1.63
2023-04-11T23:58:36.505Z,1.77
